Port Star — 3EAS6 — position and weather

sailwx.info

Track history (hours):
 
Tides and Currents Weather Stations Pressure Air Temp Water Temp Dewpoint Dewpoint Depression Visibility Wind Speed Wind Dir Waves Ship Positions

Port Star

Last reported at 2015-May-03 17:07 UTC. Time now 2015-Jul-30 20:20 UTC.
Position N 31°21' E 032°19'.
Warning: this ship's position is months out of date.

Length 175.5 m; beam 29.4 m.

Type: Ship. MMSI: 356105000.

Date/timePositionNaut miles runAvg speedWind from/ knotsBaromVisibWave heightAir tempDewpointWater temp
2015-May-03 17:07N 31°21' E 032°19'0 0.0
2015-May-03 16:22N 31°21' E 032°19'123 7.2
2015-May-02 23:17N 32°53' E 030°41'4012.8
2015-May-02 20:11N 33°24' E 030°11'813.0
2015-May-02 19:33N 33°30' E 030°05'7213.7
2015-May-02 14:17N 34°23' E 029°05'10613.1
2015-May-02 06:14N 35°40' E 027°37'1313.1
2015-May-02 05:13N 35°50' E 027°26'1012.8
2015-May-02 04:26N 35°58' E 027°18'2913.0
2015-May-02 02:12N 36°19' E 026°54'812.9
2015-May-02 01:33N 36°26' E 026°47'1312.5
2015-May-02 00:33N 36°35' E 026°37'1312.9
2015-May-01 23:33N 36°45' E 026°26'1313.1
2015-May-01 22:33N 36°54' E 026°15'1612.8
2015-May-01 21:17N 37°09' E 026°07'912.9
2015-May-01 20:33N 37°18' E 026°02'1312.9
2015-May-01 19:33N 37°29' E 025°55'1312.7
2015-May-01 18:33N 37°41' E 025°49'285 8.4
2015-Apr-30 08:27N 41°29' E 029°30'36912.3
2015-Apr-29 02:33N 44°16' E 036°59'1313.2
2015-Apr-29 01:32N 44°22' E 037°16'1313.2
2015-Apr-29 00:33N 44°28' E 037°31'1312.6
2015-Apr-28 23:33N 44°35' E 037°46'7 6.3
2015-Apr-28 22:28N 44°41' E 037°51'0 0.0
2015-Apr-28 21:31N 44°41' E 037°51'0 0.1
2015-Apr-28 20:31N 44°41' E 037°51'0 0.0
2015-Apr-28 19:31N 44°41' E 037°50'0 0.0
2015-Apr-28 18:31N 44°41' E 037°50'0 0.0
2015-Apr-28 17:31N 44°41' E 037°50'0 0.1
2015-Apr-28 16:31N 44°41' E 037°51'0 0.0
2015-Apr-28 15:31N 44°41' E 037°51'0 0.0
2015-Apr-28 14:31N 44°41' E 037°51'0 0.0
2015-Apr-28 13:31N 44°41' E 037°51'0 0.1
2015-Apr-28 12:31N 44°41' E 037°51'0 0.0
2015-Apr-28 11:31N 44°41' E 037°51'0 0.0
2015-Apr-28 10:31N 44°41' E 037°51'0 0.0
2015-Apr-28 09:31N 44°41' E 037°51'0 0.1
2015-Apr-28 08:31N 44°41' E 037°51'0 0.0
2015-Apr-28 07:31N 44°41' E 037°51'0 0.0
2015-Apr-28 06:31N 44°41' E 037°51'0 0.0
2015-Apr-28 05:31N 44°41' E 037°51'0 0.1
2015-Apr-28 04:31N 44°41' E 037°51'0 0.0
2015-Apr-28 03:31N 44°41' E 037°51'0 0.0
2015-Apr-28 02:28N 44°41' E 037°51'0 0.0
2015-Apr-28 01:31N 44°41' E 037°51'0 0.1
2015-Apr-28 00:31N 44°41' E 037°51'0 0.0
2015-Apr-27 23:31N 44°41' E 037°50'0 0.0
2015-Apr-27 22:31N 44°41' E 037°50'0 0.0
2015-Apr-27 21:31N 44°41' E 037°50'0 0.0
2015-Apr-27 20:31N 44°41' E 037°51'0 0.0
2015-Apr-27 19:31N 44°41' E 037°51'0 0.0
2015-Apr-27 18:28N 44°41' E 037°51'0 0.1
2015-Apr-27 17:31N 44°41' E 037°50'0 0.1
2015-Apr-27 16:31N 44°41' E 037°51'0 0.0
2015-Apr-27 15:31N 44°41' E 037°51'0 0.0
2015-Apr-27 14:31N 44°41' E 037°51'0 0.0
2015-Apr-27 13:31N 44°41' E 037°51'0 0.0
2015-Apr-27 12:31N 44°41' E 037°51'0 0.1
2015-Apr-27 11:31N 44°41' E 037°51'0 0.0
2015-Apr-27 10:31N 44°41' E 037°51'0 0.0
2015-Apr-27 09:31N 44°41' E 037°51'0 0.0
2015-Apr-27 08:31N 44°41' E 037°51'0 0.0
2015-Apr-27 07:31N 44°41' E 037°51'0 0.1
2015-Apr-27 06:31N 44°41' E 037°51'0 0.0
2015-Apr-27 05:31N 44°41' E 037°51'0 0.1
2015-Apr-27 04:31N 44°41' E 037°51'0 0.0
2015-Apr-27 03:31N 44°41' E 037°51'0 0.0
2015-Apr-27 02:31N 44°41' E 037°51'0 0.0
2015-Apr-27 01:31N 44°41' E 037°51'0 0.1
2015-Apr-27 00:28N 44°41' E 037°51'0 0.0
2015-Apr-26 23:31N 44°41' E 037°51'0 0.1
2015-Apr-26 22:31N 44°41' E 037°51'0 0.0
2015-Apr-26 21:31N 44°41' E 037°51'0 0.0
2015-Apr-26 20:31N 44°41' E 037°51'0 0.0
2015-Apr-26 19:31N 44°41' E 037°51'0 0.0
2015-Apr-26 18:31N 44°41' E 037°51'0 0.1
2015-Apr-26 17:31N 44°41' E 037°51'0 0.1
2015-Apr-26 16:31N 44°41' E 037°51'0 0.0
2015-Apr-26 15:31N 44°41' E 037°51'0 0.1
2015-Apr-26 14:31N 44°41' E 037°51'0 0.0
2015-Apr-26 13:31N 44°41' E 037°51'0 0.0
2015-Apr-26 12:31N 44°41' E 037°51'0 0.0
2015-Apr-26 11:31N 44°41' E 037°51'0 0.0
2015-Apr-26 10:31N 44°41' E 037°51'0 0.0
2015-Apr-26 09:31N 44°41' E 037°51'0 0.0
2015-Apr-26 08:31N 44°41' E 037°51'0 0.0
2015-Apr-26 07:31N 44°41' E 037°51'0 0.1
2015-Apr-26 06:31N 44°41' E 037°51'0 0.1
2015-Apr-26 05:31N 44°41' E 037°51'0 0.0
2015-Apr-26 04:28N 44°41' E 037°51'0 0.0
2015-Apr-26 03:31N 44°41' E 037°51'0 0.0
2015-Apr-26 02:31N 44°41' E 037°51'0 0.0
2015-Apr-26 01:31N 44°41' E 037°51'0 0.1
2015-Apr-26 00:31N 44°41' E 037°51'0 0.0
2015-Apr-25 23:31N 44°41' E 037°51'0 0.1
2015-Apr-25 22:31N 44°41' E 037°51'0 0.1
2015-Apr-25 21:31N 44°41' E 037°51'0 0.0
2015-Apr-25 20:31N 44°41' E 037°51'0 0.0
2015-Apr-25 19:31N 44°41' E 037°51'0 0.0
2015-Apr-25 18:31N 44°41' E 037°51'0 0.0
2015-Apr-25 17:31N 44°41' E 037°51'0 0.0
2015-Apr-25 16:31N 44°41' E 037°51'0 0.0
2015-Apr-25 15:31N 44°41' E 037°51'0 0.0
2015-Apr-25 14:31N 44°41' E 037°51'0 0.0
2015-Apr-25 13:28N 44°41' E 037°51'0 0.0
2015-Apr-25 12:31N 44°41' E 037°51'0 0.0
2015-Apr-25 11:31N 44°41' E 037°51'0 0.0
2015-Apr-25 10:31N 44°41' E 037°51'0 0.0
2015-Apr-25 09:31N 44°41' E 037°51'0 0.0
2015-Apr-25 08:31N 44°41' E 037°51'0 0.0
2015-Apr-25 07:31N 44°41' E 037°51'0 0.0
2015-Apr-25 06:31N 44°41' E 037°51'0 0.0
2015-Apr-25 05:31N 44°41' E 037°51'0 0.0
2015-Apr-25 04:31N 44°41' E 037°51'0 0.0
2015-Apr-25 03:31N 44°41' E 037°51'0 0.0
2015-Apr-25 02:31N 44°41' E 037°51'0 0.0
2015-Apr-25 01:31N 44°41' E 037°51'0 0.0
2015-Apr-25 00:31N 44°41' E 037°51'0 0.0
2015-Apr-24 23:31N 44°41' E 037°51'0 0.0
2015-Apr-24 22:31N 44°41' E 037°51'0 0.0
2015-Apr-24 21:31N 44°41' E 037°51'0 0.0
2015-Apr-24 20:31N 44°41' E 037°51'0 0.0
2015-Apr-24 19:31N 44°41' E 037°51'2 2.0
2015-Apr-24 18:33N 44°43' E 037°49'2 1.6
2015-Apr-24 17:32N 44°44' E 037°47'0 0.0
2015-Apr-24 16:32N 44°44' E 037°47'0 0.0
2015-Apr-24 15:32N 44°44' E 037°47'0 0.0
2015-Apr-24 14:32N 44°44' E 037°47'0 0.0
2015-Apr-24 13:32N 44°44' E 037°47'0 0.0
2015-Apr-24 12:32N 44°44' E 037°47'0 0.0
2015-Apr-24 11:32N 44°44' E 037°47'0 0.0
2015-Apr-24 10:32N 44°44' E 037°47'0 0.0
2015-Apr-24 09:32N 44°44' E 037°47'0 0.0
2015-Apr-24 08:32N 44°44' E 037°47'0 0.0
2015-Apr-24 07:32N 44°44' E 037°47'0 0.0
2015-Apr-24 06:32N 44°44' E 037°47'0 0.0
2015-Apr-24 05:32N 44°44' E 037°47'0 0.0
2015-Apr-24 04:29N 44°44' E 037°47'0 0.0
2015-Apr-24 03:32N 44°44' E 037°47'0 0.0
2015-Apr-24 02:29N 44°44' E 037°47'0 0.0
2015-Apr-24 01:32N 44°44' E 037°47'0 0.0
2015-Apr-24 00:32N 44°44' E 037°47'0 0.0
2015-Apr-23 23:32N 44°44' E 037°47'0 0.0
2015-Apr-23 22:32N 44°44' E 037°47'0 0.0
2015-Apr-23 21:32N 44°44' E 037°47'0 0.0
2015-Apr-23 20:32N 44°44' E 037°47'0 0.0
2015-Apr-23 19:32N 44°44' E 037°47'0 0.0
2015-Apr-23 18:32N 44°44' E 037°47'0 0.0
2015-Apr-23 17:32N 44°44' E 037°47'  
Track history (hours):
 
Tides and Currents Weather Stations Pressure Air Temp Water Temp Dewpoint Dewpoint Depression Visibility Wind Speed Wind Dir Waves Ship Positions

Port Star

Last reported at 2015-May-03 17:07 UTC. Time now 2015-Jul-30 20:20 UTC.
Position N 31°21' E 032°19'.
Warning: this ship's position is months out of date.

Length 175.5 m; beam 29.4 m.

Type: Ship. MMSI: 356105000.

Date/timePositionNaut miles runAvg speedWind from/ knotsBaromVisibWave heightAir tempDewpointWater temp
2015-May-03 17:07N 31°21' E 032°19'0 0.0
2015-May-03 16:22N 31°21' E 032°19'123 7.2
2015-May-02 23:17N 32°53' E 030°41'4012.8
2015-May-02 20:11N 33°24' E 030°11'813.0
2015-May-02 19:33N 33°30' E 030°05'7213.7
2015-May-02 14:17N 34°23' E 029°05'10613.1
2015-May-02 06:14N 35°40' E 027°37'1313.1
2015-May-02 05:13N 35°50' E 027°26'1012.8
2015-May-02 04:26N 35°58' E 027°18'2913.0
2015-May-02 02:12N 36°19' E 026°54'812.9
2015-May-02 01:33N 36°26' E 026°47'1312.5
2015-May-02 00:33N 36°35' E 026°37'1312.9
2015-May-01 23:33N 36°45' E 026°26'1313.1
2015-May-01 22:33N 36°54' E 026°15'1612.8
2015-May-01 21:17N 37°09' E 026°07'912.9
2015-May-01 20:33N 37°18' E 026°02'1312.9
2015-May-01 19:33N 37°29' E 025°55'1312.7
2015-May-01 18:33N 37°41' E 025°49'285 8.4
2015-Apr-30 08:27N 41°29' E 029°30'36912.3
2015-Apr-29 02:33N 44°16' E 036°59'1313.2
2015-Apr-29 01:32N 44°22' E 037°16'1313.2
2015-Apr-29 00:33N 44°28' E 037°31'1312.6
2015-Apr-28 23:33N 44°35' E 037°46'7 6.3
2015-Apr-28 22:28N 44°41' E 037°51'0 0.0
2015-Apr-28 21:31N 44°41' E 037°51'0 0.1
2015-Apr-28 20:31N 44°41' E 037°51'0 0.0
2015-Apr-28 19:31N 44°41' E 037°50'0 0.0
2015-Apr-28 18:31N 44°41' E 037°50'0 0.0
2015-Apr-28 17:31N 44°41' E 037°50'0 0.1
2015-Apr-28 16:31N 44°41' E 037°51'0 0.0
2015-Apr-28 15:31N 44°41' E 037°51'0 0.0
2015-Apr-28 14:31N 44°41' E 037°51'0 0.0
2015-Apr-28 13:31N 44°41' E 037°51'0 0.1
2015-Apr-28 12:31N 44°41' E 037°51'0 0.0
2015-Apr-28 11:31N 44°41' E 037°51'0 0.0
2015-Apr-28 10:31N 44°41' E 037°51'0 0.0
2015-Apr-28 09:31N 44°41' E 037°51'0 0.1
2015-Apr-28 08:31N 44°41' E 037°51'0 0.0
2015-Apr-28 07:31N 44°41' E 037°51'0 0.0
2015-Apr-28 06:31N 44°41' E 037°51'0 0.0
2015-Apr-28 05:31N 44°41' E 037°51'0 0.1
2015-Apr-28 04:31N 44°41' E 037°51'0 0.0
2015-Apr-28 03:31N 44°41' E 037°51'0 0.0
2015-Apr-28 02:28N 44°41' E 037°51'0 0.0
2015-Apr-28 01:31N 44°41' E 037°51'0 0.1
2015-Apr-28 00:31N 44°41' E 037°51'0 0.0
2015-Apr-27 23:31N 44°41' E 037°50'0 0.0
2015-Apr-27 22:31N 44°41' E 037°50'0 0.0
2015-Apr-27 21:31N 44°41' E 037°50'0 0.0
2015-Apr-27 20:31N 44°41' E 037°51'0 0.0
2015-Apr-27 19:31N 44°41' E 037°51'0 0.0
2015-Apr-27 18:28N 44°41' E 037°51'0 0.1
2015-Apr-27 17:31N 44°41' E 037°50'0 0.1
2015-Apr-27 16:31N 44°41' E 037°51'0 0.0
2015-Apr-27 15:31N 44°41' E 037°51'0 0.0
2015-Apr-27 14:31N 44°41' E 037°51'0 0.0
2015-Apr-27 13:31N 44°41' E 037°51'0 0.0
2015-Apr-27 12:31N 44°41' E 037°51'0 0.1
2015-Apr-27 11:31N 44°41' E 037°51'0 0.0
2015-Apr-27 10:31N 44°41' E 037°51'0 0.0
2015-Apr-27 09:31N 44°41' E 037°51'0 0.0
2015-Apr-27 08:31N 44°41' E 037°51'0 0.0
2015-Apr-27 07:31N 44°41' E 037°51'0 0.1
2015-Apr-27 06:31N 44°41' E 037°51'0 0.0
2015-Apr-27 05:31N 44°41' E 037°51'0 0.1
2015-Apr-27 04:31N 44°41' E 037°51'0 0.0
2015-Apr-27 03:31N 44°41' E 037°51'0 0.0
2015-Apr-27 02:31N 44°41' E 037°51'0 0.0
2015-Apr-27 01:31N 44°41' E 037°51'0 0.1
2015-Apr-27 00:28N 44°41' E 037°51'0 0.0
2015-Apr-26 23:31N 44°41' E 037°51'0 0.1
2015-Apr-26 22:31N 44°41' E 037°51'0 0.0
2015-Apr-26 21:31N 44°41' E 037°51'0 0.0
2015-Apr-26 20:31N 44°41' E 037°51'0 0.0
2015-Apr-26 19:31N 44°41' E 037°51'0 0.0
2015-Apr-26 18:31N 44°41' E 037°51'0 0.1
2015-Apr-26 17:31N 44°41' E 037°51'0 0.1
2015-Apr-26 16:31N 44°41' E 037°51'0 0.0
2015-Apr-26 15:31N 44°41' E 037°51'0 0.1
2015-Apr-26 14:31N 44°41' E 037°51'0 0.0
2015-Apr-26 13:31N 44°41' E 037°51'0 0.0
2015-Apr-26 12:31N 44°41' E 037°51'0 0.0
2015-Apr-26 11:31N 44°41' E 037°51'0 0.0
2015-Apr-26 10:31N 44°41' E 037°51'0 0.0
2015-Apr-26 09:31N 44°41' E 037°51'0 0.0
2015-Apr-26 08:31N 44°41' E 037°51'0 0.0
2015-Apr-26 07:31N 44°41' E 037°51'0 0.1
2015-Apr-26 06:31N 44°41' E 037°51'0 0.1
2015-Apr-26 05:31N 44°41' E 037°51'0 0.0
2015-Apr-26 04:28N 44°41' E 037°51'0 0.0
2015-Apr-26 03:31N 44°41' E 037°51'0 0.0
2015-Apr-26 02:31N 44°41' E 037°51'0 0.0
2015-Apr-26 01:31N 44°41' E 037°51'0 0.1
2015-Apr-26 00:31N 44°41' E 037°51'0 0.0
2015-Apr-25 23:31N 44°41' E 037°51'0 0.1
2015-Apr-25 22:31N 44°41' E 037°51'0 0.1
2015-Apr-25 21:31N 44°41' E 037°51'0 0.0
2015-Apr-25 20:31N 44°41' E 037°51'0 0.0
2015-Apr-25 19:31N 44°41' E 037°51'0 0.0
2015-Apr-25 18:31N 44°41' E 037°51'0 0.0
2015-Apr-25 17:31N 44°41' E 037°51'0 0.0
2015-Apr-25 16:31N 44°41' E 037°51'0 0.0
2015-Apr-25 15:31N 44°41' E 037°51'0 0.0
2015-Apr-25 14:31N 44°41' E 037°51'0 0.0
2015-Apr-25 13:28N 44°41' E 037°51'0 0.0
2015-Apr-25 12:31N 44°41' E 037°51'0 0.0
2015-Apr-25 11:31N 44°41' E 037°51'0 0.0
2015-Apr-25 10:31N 44°41' E 037°51'0 0.0
2015-Apr-25 09:31N 44°41' E 037°51'0 0.0
2015-Apr-25 08:31N 44°41' E 037°51'0 0.0
2015-Apr-25 07:31N 44°41' E 037°51'0 0.0
2015-Apr-25 06:31N 44°41' E 037°51'0 0.0
2015-Apr-25 05:31N 44°41' E 037°51'0 0.0
2015-Apr-25 04:31N 44°41' E 037°51'0 0.0
2015-Apr-25 03:31N 44°41' E 037°51'0 0.0
2015-Apr-25 02:31N 44°41' E 037°51'0 0.0
2015-Apr-25 01:31N 44°41' E 037°51'0 0.0
2015-Apr-25 00:31N 44°41' E 037°51'0 0.0
2015-Apr-24 23:31N 44°41' E 037°51'0 0.0
2015-Apr-24 22:31N 44°41' E 037°51'0 0.0
2015-Apr-24 21:31N 44°41' E 037°51'0 0.0
2015-Apr-24 20:31N 44°41' E 037°51'0 0.0
2015-Apr-24 19:31N 44°41' E 037°51'2 2.0
2015-Apr-24 18:33N 44°43' E 037°49'2 1.6
2015-Apr-24 17:32N 44°44' E 037°47'0 0.0
2015-Apr-24 16:32N 44°44' E 037°47'0 0.0
2015-Apr-24 15:32N 44°44' E 037°47'0 0.0
2015-Apr-24 14:32N 44°44' E 037°47'0 0.0
2015-Apr-24 13:32N 44°44' E 037°47'0 0.0
2015-Apr-24 12:32N 44°44' E 037°47'0 0.0
2015-Apr-24 11:32N 44°44' E 037°47'0 0.0
2015-Apr-24 10:32N 44°44' E 037°47'0 0.0
2015-Apr-24 09:32N 44°44' E 037°47'0 0.0
2015-Apr-24 08:32N 44°44' E 037°47'0 0.0
2015-Apr-24 07:32N 44°44' E 037°47'0 0.0
2015-Apr-24 06:32N 44°44' E 037°47'0 0.0
2015-Apr-24 05:32N 44°44' E 037°47'0 0.0
2015-Apr-24 04:29N 44°44' E 037°47'0 0.0
2015-Apr-24 03:32N 44°44' E 037°47'0 0.0
2015-Apr-24 02:29N 44°44' E 037°47'0 0.0
2015-Apr-24 01:32N 44°44' E 037°47'0 0.0
2015-Apr-24 00:32N 44°44' E 037°47'0 0.0
2015-Apr-23 23:32N 44°44' E 037°47'0 0.0
2015-Apr-23 22:32N 44°44' E 037°47'0 0.0
2015-Apr-23 21:32N 44°44' E 037°47'0 0.0
2015-Apr-23 20:32N 44°44' E 037°47'0 0.0
2015-Apr-23 19:32N 44°44' E 037°47'0 0.0
2015-Apr-23 18:32N 44°44' E 037°47'0 0.0
2015-Apr-23 17:32N 44°44' E 037°47'  

Dump ship's entire track history